sensor_id;sensor_type;location;lat;lon;timestamp;pressure;altitude;pressure_sealevel;temperature;humidity
75913;BME280;64592;52.168;21.040;2023-02-03T00:01:42;100765.72;;;0.84;83.21
75913;BME280;64592;52.168;21.040;2023-02-03T00:06:46;100772.84;;;0.82;83.33
75913;BME280;64592;52.168;21.040;2023-02-03T00:11:48;100770.13;;;0.85;81.94
75913;BME280;64592;52.168;21.040;2023-02-03T00:16:49;100769.56;;;0.73;82.27
75913;BME280;64592;52.168;21.040;2023-02-03T00:21:52;100763.53;;;0.67;81.98
75913;BME280;64592;52.168;21.040;2023-02-03T00:26:54;100773.47;;;0.60;81.09
75913;BME280;64592;52.168;21.040;2023-02-03T00:31:56;100781.34;;;0.63;80.77
75913;BME280;64592;52.168;21.040;2023-02-03T00:36:59;100771.81;;;0.56;80.81
75913;BME280;64592;52.168;21.040;2023-02-03T00:42:02;100788.72;;;0.52;81.32
75913;BME280;64592;52.168;21.040;2023-02-03T00:47:04;100789.59;;;0.53;80.95
75913;BME280;64592;52.168;21.040;2023-02-03T00:52:07;100787.00;;;0.51;80.96
75913;BME280;64592;52.168;21.040;2023-02-03T00:57:09;100800.25;;;0.51;80.36
75913;BME280;64592;52.168;21.040;2023-02-03T01:02:10;100795.97;;;0.46;80.94
75913;BME280;64592;52.168;21.040;2023-02-03T01:07:14;100797.84;;;0.42;80.45
75913;BME280;64592;52.168;21.040;2023-02-03T01:12:15;100804.13;;;0.38;80.87
75913;BME280;64592;52.168;21.040;2023-02-03T01:17:17;100806.84;;;0.36;80.78
75913;BME280;64592;52.168;21.040;2023-02-03T01:22:20;100811.28;;;0.36;81.03
75913;BME280;64592;52.168;21.040;2023-02-03T01:27:22;100804.31;;;0.30;81.32
75913;BME280;64592;52.168;21.040;2023-02-03T01:32:24;100797.19;;;0.34;80.81
75913;BME280;64592;52.168;21.040;2023-02-03T01:37:27;100804.19;;;0.36;80.61
75913;BME280;64592;52.168;21.040;2023-02-03T01:42:31;100800.66;;;0.36;80.66
75913;BME280;64592;52.168;21.040;2023-02-03T01:47:35;100791.81;;;0.37;80.92
75913;BME280;64592;52.168;21.040;2023-02-03T01:52:46;100791.84;;;0.35;80.45
75913;BME280;64592;52.168;21.040;2023-02-03T01:57:51;100785.63;;;0.36;80.50
75913;BME280;64592;52.168;21.040;2023-02-03T02:02:57;100785.63;;;0.36;80.67
75913;BME280;64592;52.168;21.040;2023-02-03T02:08:02;100792.66;;;0.37;80.00
75913;BME280;64592;52.168;21.040;2023-02-03T02:13:05;100784.91;;;0.30;77.65
75913;BME280;64592;52.168;21.040;2023-02-03T02:18:20;100772.72;;;0.23;76.71
75913;BME280;64592;52.168;21.040;2023-02-03T02:34:49;100783.88;;;0.02;74.68
75913;BME280;64592;52.168;21.040;2023-02-03T02:39:56;100773.13;;;0.08;75.36
75913;BME280;64592;52.168;21.040;2023-02-03T02:45:06;100763.28;;;0.13;74.38
75913;BME280;64592;52.168;21.040;2023-02-03T02:50:15;100756.41;;;0.06;73.55
75913;BME280;64592;52.168;21.040;2023-02-03T02:55:22;100752.84;;;0.07;73.85
75913;BME280;64592;52.168;21.040;2023-02-03T03:00:29;100756.44;;;0.04;74.94
75913;BME280;64592;52.168;21.040;2023-02-03T03:05:32;100766.16;;;0.04;76.67
75913;BME280;64592;52.168;21.040;2023-02-03T03:10:35;100764.38;;;0.06;78.00
75913;BME280;64592;52.168;21.040;2023-02-03T03:15:40;100764.56;;;-0.02;78.12
75913;BME280;64592;52.168;21.040;2023-02-03T03:20:46;100766.41;;;-0.06;78.53
75913;BME280;64592;52.168;21.040;2023-02-03T03:25:50;100773.53;;;-0.08;78.96
75913;BME280;64592;52.168;21.040;2023-02-03T03:30:54;100771.03;;;-0.14;79.69
75913;BME280;64592;52.168;21.040;2023-02-03T03:36:01;100762.19;;;-0.14;79.39
75913;BME280;64592;52.168;21.040;2023-02-03T03:41:07;100757.03;;;-0.19;79.68
75913;BME280;64592;52.168;21.040;2023-02-03T03:46:17;100749.34;;;-0.29;79.49
75913;BME280;64592;52.168;21.040;2023-02-03T03:51:26;100749.47;;;-0.34;79.63
75913;BME280;64592;52.168;21.040;2023-02-03T03:56:33;100757.56;;;-0.40;80.48
75913;BME280;64592;52.168;21.040;2023-02-03T04:01:37;100764.63;;;-0.41;80.77
75913;BME280;64592;52.168;21.040;2023-02-03T04:06:41;100749.75;;;-0.45;80.26
75913;BME280;64592;52.168;21.040;2023-02-03T04:11:42;100762.19;;;-0.48;80.96
75913;BME280;64592;52.168;21.040;2023-02-03T04:17:02;100754.44;;;-0.57;80.84
75913;BME280;64592;52.168;21.040;2023-02-03T04:22:05;100755.59;;;-0.67;81.74
75913;BME280;64592;52.168;21.040;2023-02-03T04:27:07;100752.38;;;-0.82;80.89
75913;BME280;64592;52.168;21.040;2023-02-03T04:32:09;100752.50;;;-0.88;81.98
75913;BME280;64592;52.168;21.040;2023-02-03T04:37:12;100755.25;;;-0.92;80.83
75913;BME280;64592;52.168;21.040;2023-02-03T04:42:14;100766.63;;;-0.89;80.67
75913;BME280;64592;52.168;21.040;2023-02-03T04:47:16;100759.53;;;-0.87;81.06
75913;BME280;64592;52.168;21.040;2023-02-03T04:52:19;100761.41;;;-0.90;81.18
75913;BME280;64592;52.168;21.040;2023-02-03T04:57:21;100742.06;;;-0.94;81.19
75913;BME280;64592;52.168;21.040;2023-02-03T05:02:23;100742.97;;;-0.95;81.57
75913;BME280;64592;52.168;21.040;2023-02-03T05:07:26;100735.03;;;-0.95;81.74
75913;BME280;64592;52.168;21.040;2023-02-03T05:12:27;100726.34;;;-1.00;82.37
75913;BME280;64592;52.168;21.040;2023-02-03T05:17:29;100722.69;;;-0.96;81.97
75913;BME280;64592;52.168;21.040;2023-02-03T05:22:32;100729.72;;;-0.95;82.66
75913;BME280;64592;52.168;21.040;2023-02-03T05:27:36;100731.56;;;-0.97;82.43
75913;BME280;64592;52.168;21.040;2023-02-03T05:32:38;100724.59;;;-1.01;83.08
75913;BME280;64592;52.168;21.040;2023-02-03T05:37:43;100728.97;;;-1.00;83.16
75913;BME280;64592;52.168;21.040;2023-02-03T05:42:46;100719.25;;;-0.98;83.36
75913;BME280;64592;52.168;21.040;2023-02-03T05:47:48;100720.97;;;-0.97;83.52
75913;BME280;64592;52.168;21.040;2023-02-03T05:52:51;100713.06;;;-0.98;83.81
75913;BME280;64592;52.168;21.040;2023-02-03T05:57:53;100718.41;;;-1.01;83.73
75913;BME280;64592;52.168;21.040;2023-02-03T06:02:56;100715.75;;;-1.00;84.36
75913;BME280;64592;52.168;21.040;2023-02-03T06:08:00;100709.63;;;-1.02;84.47
75913;BME280;64592;52.168;21.040;2023-02-03T06:13:08;100702.53;;;-1.00;84.33
75913;BME280;64592;52.168;21.040;2023-02-03T06:18:10;100704.31;;;-1.02;84.83
75913;BME280;64592;52.168;21.040;2023-02-03T06:23:13;100698.28;;;-1.07;85.16
75913;BME280;64592;52.168;21.040;2023-02-03T06:28:16;100691.25;;;-1.08;85.19
75913;BME280;64592;52.168;21.040;2023-02-03T06:33:18;100693.88;;;-1.08;85.21
75913;BME280;64592;52.168;21.040;2023-02-03T06:38:21;100677.16;;;-1.10;84.68
75913;BME280;64592;52.168;21.040;2023-02-03T06:43:23;100663.06;;;-1.09;84.77
75913;BME280;64592;52.168;21.040;2023-02-03T06:48:25;100656.88;;;-1.09;85.19
75913;BME280;64592;52.168;21.040;2023-02-03T06:53:28;100643.66;;;-1.09;85.29
75913;BME280;64592;52.168;21.040;2023-02-03T06:58:30;100643.63;;;-1.08;84.63
75913;BME280;64592;52.168;21.040;2023-02-03T07:03:31;100636.50;;;-1.04;85.68
75913;BME280;64592;52.168;21.040;2023-02-03T07:08:35;100621.50;;;-1.04;84.52
75913;BME280;64592;52.168;21.040;2023-02-03T07:13:36;100624.00;;;-0.98;84.81
75913;BME280;64592;52.168;21.040;2023-02-03T07:18:38;100608.03;;;-0.95;84.53
75913;BME280;64592;52.168;21.040;2023-02-03T07:23:41;100593.81;;;-0.89;83.64
75913;BME280;64592;52.168;21.040;2023-02-03T07:28:43;100592.75;;;-0.82;83.79
75913;BME280;64592;52.168;21.040;2023-02-03T07:33:45;100593.47;;;-0.75;83.75
75913;BME280;64592;52.168;21.040;2023-02-03T07:38:48;100580.94;;;-0.69;82.99
75913;BME280;64592;52.168;21.040;2023-02-03T07:43:50;100582.47;;;-0.60;81.99
75913;BME280;64592;52.168;21.040;2023-02-03T07:48:52;100564.66;;;-0.54;81.62
75913;BME280;64592;52.168;21.040;2023-02-03T07:53:55;100544.25;;;-0.50;81.00
75913;BME280;64592;52.168;21.040;2023-02-03T07:58:57;100543.22;;;-0.45;81.58
75913;BME280;64592;52.168;21.040;2023-02-03T08:03:59;100535.16;;;-0.40;80.53
75913;BME280;64592;52.168;21.040;2023-02-03T08:09:05;100525.28;;;-0.35;79.91
75913;BME280;64592;52.168;21.040;2023-02-03T08:14:07;100523.44;;;-0.31;79.24
75913;BME280;64592;52.168;21.040;2023-02-03T08:19:09;100515.38;;;-0.28;79.14
75913;BME280;64592;52.168;21.040;2023-02-03T08:24:12;100515.34;;;-0.27;79.46
75913;BME280;64592;52.168;21.040;2023-02-03T08:29:14;100503.75;;;-0.23;78.45
75913;BME280;64592;52.168;21.040;2023-02-03T08:34:16;100498.25;;;-0.15;78.51
75913;BME280;64592;52.168;21.040;2023-02-03T08:39:19;100492.81;;;-0.11;78.14
75913;BME280;64592;52.168;21.040;2023-02-03T08:44:21;100478.59;;;-0.08;78.21
75913;BME280;64592;52.168;21.040;2023-02-03T08:49:24;100469.63;;;-0.04;78.29
75913;BME280;64592;52.168;21.040;2023-02-03T08:54:28;100468.50;;;0.05;78.02
75913;BME280;64592;52.168;21.040;2023-02-03T08:59:29;100454.22;;;0.09;76.26
75913;BME280;64592;52.168;21.040;2023-02-03T09:04:35;100446.94;;;0.15;77.12
75913;BME280;64592;52.168;21.040;2023-02-03T09:09:39;100428.25;;;0.20;75.41
75913;BME280;64592;52.168;21.040;2023-02-03T09:14:41;100426.31;;;0.25;74.69
75913;BME280;64592;52.168;21.040;2023-02-03T09:19:42;100422.56;;;0.32;73.88
75913;BME280;64592;52.168;21.040;2023-02-03T09:24:45;100406.44;;;0.38;73.48
75913;BME280;64592;52.168;21.040;2023-02-03T09:29:49;100401.88;;;0.43;73.08
75913;BME280;64592;52.168;21.040;2023-02-03T09:34:51;100390.22;;;0.47;71.54
75913;BME280;64592;52.168;21.040;2023-02-03T09:39:54;100379.53;;;0.50;70.04
75913;BME280;64592;52.168;21.040;2023-02-03T09:45:08;100374.88;;;0.57;69.43
75913;BME280;64592;52.168;21.040;2023-02-03T09:50:15;100350.84;;;0.61;69.71
75913;BME280;64592;52.168;21.040;2023-02-03T09:55:29;100334.78;;;0.66;69.69
75913;BME280;64592;52.168;21.040;2023-02-03T10:00:35;100316.03;;;0.70;69.60
75913;BME280;64592;52.168;21.040;2023-02-03T10:05:52;100309.28;;;0.87;68.49
75913;BME280;64592;52.168;21.040;2023-02-03T10:11:07;100300.25;;;0.91;68.09
75913;BME280;64592;52.168;21.040;2023-02-03T10:16:28;100281.00;;;0.86;66.42
75913;BME280;64592;52.168;21.040;2023-02-03T10:21:35;100269.19;;;0.94;67.29
75913;BME280;64592;52.168;21.040;2023-02-03T10:26:39;100254.25;;;0.92;66.24
75913;BME280;64592;52.168;21.040;2023-02-03T10:31:42;100243.53;;;0.95;66.38
75913;BME280;64592;52.168;21.040;2023-02-03T10:36:53;100230.59;;;1.09;66.59
75913;BME280;64592;52.168;21.040;2023-02-03T10:41:57;100208.34;;;1.11;66.30
75913;BME280;64592;52.168;21.040;2023-02-03T10:47:00;100197.31;;;1.22;66.75
75913;BME280;64592;52.168;21.040;2023-02-03T10:52:02;100183.06;;;1.25;66.74
75913;BME280;64592;52.168;21.040;2023-02-03T10:57:10;100171.28;;;1.32;64.62
75913;BME280;64592;52.168;21.040;2023-02-03T11:02:22;100148.25;;;1.32;65.34
75913;BME280;64592;52.168;21.040;2023-02-03T11:07:25;100130.44;;;1.34;65.80
75913;BME280;64592;52.168;21.040;2023-02-03T11:12:30;100107.34;;;1.36;66.68
75913;BME280;64592;52.168;21.040;2023-02-03T11:17:34;100083.72;;;1.30;66.41
75913;BME280;64592;52.168;21.040;2023-02-03T11:22:38;100061.56;;;1.31;66.25
75913;BME280;64592;52.168;21.040;2023-02-03T11:27:42;100037.38;;;1.37;65.71
75913;BME280;64592;52.168;21.040;2023-02-03T11:32:46;100032.06;;;1.37;65.02
75913;BME280;64592;52.168;21.040;2023-02-03T11:37:50;100015.34;;;1.35;65.62
75913;BME280;64592;52.168;21.040;2023-02-03T11:43:04;100004.19;;;1.27;65.34
75913;BME280;64592;52.168;21.040;2023-02-03T11:48:16;99971.56;;;1.25;65.02
75913;BME280;64592;52.168;21.040;2023-02-03T11:53:26;99963.59;;;1.25;65.50
75913;BME280;64592;52.168;21.040;2023-02-03T11:59:09;99971.56;;;1.25;65.33
75913;BME280;64592;52.168;21.040;2023-02-03T12:04:23;99941.41;;;1.26;65.00
75913;BME280;64592;52.168;21.040;2023-02-03T12:09:40;99928.13;;;1.26;65.25
75913;BME280;64592;52.168;21.040;2023-02-03T12:14:56;99914.84;;;1.26;65.06
75913;BME280;64592;52.168;21.040;2023-02-03T12:20:24;99915.72;;;1.27;64.97
75913;BME280;64592;52.168;21.040;2023-02-03T12:25:35;99896.22;;;1.28;64.73
75913;BME280;64592;52.168;21.040;2023-02-03T12:30:46;99895.16;;;1.32;65.08
75913;BME280;64592;52.168;21.040;2023-02-03T12:35:53;99888.91;;;1.33;64.49
75913;BME280;64592;52.168;21.040;2023-02-03T12:40:58;99866.66;;;1.35;64.29
75913;BME280;64592;52.168;21.040;2023-02-03T12:46:04;99854.47;;;1.31;63.84
75913;BME280;64592;52.168;21.040;2023-02-03T12:51:14;99835.81;;;1.33;64.28
75913;BME280;64592;52.168;21.040;2023-02-03T12:56:22;99813.84;;;1.29;63.92
75913;BME280;64592;52.168;21.040;2023-02-03T13:01:30;99791.31;;;1.19;64.33
75913;BME280;64592;52.168;21.040;2023-02-03T13:06:42;99784.13;;;1.21;64.80
75913;BME280;64592;52.168;21.040;2023-02-03T13:11:51;99755.97;;;1.19;65.23
75913;BME280;64592;52.168;21.040;2023-02-03T13:16:58;99750.00;;;1.13;66.49
75913;BME280;64592;52.168;21.040;2023-02-03T13:22:04;99727.13;;;1.11;67.89
75913;BME280;64592;52.168;21.040;2023-02-03T13:27:20;99716.94;;;1.02;69.77
75913;BME280;64592;52.168;21.040;2023-02-03T13:32:36;99691.63;;;0.95;72.06
75913;BME280;64592;52.168;21.040;2023-02-03T13:38:03;99667.31;;;0.85;75.11
75913;BME280;64592;52.168;21.040;2023-02-03T13:43:12;99656.28;;;0.75;76.72
75913;BME280;64592;52.168;21.040;2023-02-03T13:48:18;99644.75;;;0.58;79.10
75913;BME280;64592;52.168;21.040;2023-02-03T13:53:23;99631.84;;;0.50;80.08
75913;BME280;64592;52.168;21.040;2023-02-03T13:58:29;99627.75;;;0.43;81.73
75913;BME280;64592;52.168;21.040;2023-02-03T14:03:43;99623.78;;;0.33;83.47
75913;BME280;64592;52.168;21.040;2023-02-03T14:08:48;99604.16;;;0.18;84.38
75913;BME280;64592;52.168;21.040;2023-02-03T14:13:51;99595.75;;;0.09;85.77
75913;BME280;64592;52.168;21.040;2023-02-03T14:18:54;99581.94;;;0.02;86.67
75913;BME280;64592;52.168;21.040;2023-02-03T14:24:02;99568.16;;;-0.06;87.57
75913;BME280;64592;52.168;21.040;2023-02-03T14:29:07;99560.31;;;-0.08;87.63
75913;BME280;64592;52.168;21.040;2023-02-03T14:34:12;99551.69;;;-0.13;88.77
75913;BME280;64592;52.168;21.040;2023-02-03T14:45:03;99529.00;;;-0.18;88.90
75913;BME280;64592;52.168;21.040;2023-02-03T14:50:20;99520.47;;;-0.25;89.33
75913;BME280;64592;52.168;21.040;2023-02-03T14:55:36;99513.75;;;-0.32;90.47
75913;BME280;64592;52.168;21.040;2023-02-03T15:00:39;99510.16;;;-0.31;89.88
75913;BME280;64592;52.168;21.040;2023-02-03T15:05:44;99498.56;;;-0.28;89.62
75913;BME280;64592;52.168;21.040;2023-02-03T15:10:46;99487.41;;;-0.35;90.57
75913;BME280;64592;52.168;21.040;2023-02-03T15:15:49;99491.63;;;-0.31;89.83
75913;BME280;64592;52.168;21.040;2023-02-03T15:20:54;99474.91;;;-0.31;90.46
75913;BME280;64592;52.168;21.040;2023-02-03T15:25:57;99468.06;;;-0.37;89.94
75913;BME280;64592;52.168;21.040;2023-02-03T15:31:02;99462.78;;;-0.37;90.50
75913;BME280;64592;52.168;21.040;2023-02-03T15:36:11;99444.34;;;-0.38;90.82
75913;BME280;64592;52.168;21.040;2023-02-03T15:41:19;99450.34;;;-0.35;90.61
75913;BME280;64592;52.168;21.040;2023-02-03T15:46:26;99439.16;;;-0.42;90.86
75913;BME280;64592;52.168;21.040;2023-02-03T15:51:35;99434.84;;;-0.44;90.39
75913;BME280;64592;52.168;21.040;2023-02-03T15:56:41;99421.91;;;-0.50;90.92
75913;BME280;64592;52.168;21.040;2023-02-03T16:01:44;99409.53;;;-0.50;90.98
75913;BME280;64592;52.168;21.040;2023-02-03T16:06:49;99400.69;;;-0.49;91.43
75913;BME280;64592;52.168;21.040;2023-02-03T16:12:02;99397.16;;;-0.49;90.91
75913;BME280;64592;52.168;21.040;2023-02-03T16:17:13;99401.41;;;-0.45;90.65
75913;BME280;64592;52.168;21.040;2023-02-03T16:22:30;99386.88;;;-0.55;90.98
75913;BME280;64592;52.168;21.040;2023-02-03T16:27:36;99370.06;;;-0.54;91.29
75913;BME280;64592;52.168;21.040;2023-02-03T16:32:38;99371.63;;;-0.50;91.16
75913;BME280;64592;52.168;21.040;2023-02-03T16:38:13;99368.84;;;-0.47;91.60
75913;BME280;64592;52.168;21.040;2023-02-03T16:43:32;99355.63;;;-0.47;91.15
75913;BME280;64592;52.168;21.040;2023-02-03T16:48:51;99353.91;;;-0.48;92.01
75913;BME280;64592;52.168;21.040;2023-02-03T16:54:12;99353.91;;;-0.48;91.64
75913;BME280;64592;52.168;21.040;2023-02-03T16:59:16;99342.22;;;-0.44;91.89
75913;BME280;64592;52.168;21.040;2023-02-03T17:04:18;99341.59;;;-0.49;91.50
75913;BME280;64592;52.168;21.040;2023-02-03T17:09:21;99345.81;;;-0.45;92.09
75913;BME280;64592;52.168;21.040;2023-02-03T17:14:24;99339.56;;;-0.44;91.77
75913;BME280;64592;52.168;21.040;2023-02-03T17:19:26;99337.03;;;-0.46;91.43
75913;BME280;64592;52.168;21.040;2023-02-03T17:24:29;99338.28;;;-0.35;91.25
75913;BME280;64592;52.168;21.040;2023-02-03T17:29:31;99346.59;;;-0.43;92.03
75913;BME280;64592;52.168;21.040;2023-02-03T17:34:33;99354.97;;;-0.33;91.28
75913;BME280;64592;52.168;21.040;2023-02-03T17:39:36;99353.47;;;-0.39;92.02
75913;BME280;64592;52.168;21.040;2023-02-03T17:44:38;99347.44;;;-0.43;91.67
75913;BME280;64592;52.168;21.040;2023-02-03T17:49:39;99357.75;;;-0.36;91.75
75913;BME280;64592;52.168;21.040;2023-02-03T17:54:42;99352.38;;;-0.35;90.99
75913;BME280;64592;52.168;21.040;2023-02-03T17:59:45;99355.94;;;-0.36;91.89
75913;BME280;64592;52.168;21.040;2023-02-03T18:04:47;99362.84;;;-0.32;91.15
75913;BME280;64592;52.168;21.040;2023-02-03T18:09:50;99363.75;;;-0.33;90.90
75913;BME280;64592;52.168;21.040;2023-02-03T18:14:52;99364.75;;;-0.35;91.94
75913;BME280;64592;52.168;21.040;2023-02-03T18:19:54;99364.75;;;-0.35;91.00
75913;BME280;64592;52.168;21.040;2023-02-03T18:24:57;99383.16;;;-0.32;90.64
75913;BME280;64592;52.168;21.040;2023-02-03T18:29:58;99381.50;;;-0.35;91.43
75913;BME280;64592;52.168;21.040;2023-02-03T18:35:00;99386.66;;;-0.32;90.93
75913;BME280;64592;52.168;21.040;2023-02-03T18:40:04;99396.31;;;-0.31;91.00
75913;BME280;64592;52.168;21.040;2023-02-03T18:45:09;99403.47;;;-0.33;90.84
75913;BME280;64592;52.168;21.040;2023-02-03T18:50:10;99400.69;;;-0.30;90.44
75913;BME280;64592;52.168;21.040;2023-02-03T18:55:14;99400.69;;;-0.30;91.41
75913;BME280;64592;52.168;21.040;2023-02-03T19:00:15;99409.56;;;-0.31;91.65
75913;BME280;64592;52.168;21.040;2023-02-03T19:05:17;99408.63;;;-0.30;91.35
75913;BME280;64592;52.168;21.040;2023-02-03T19:10:20;99412.84;;;-0.26;91.01
75913;BME280;64592;52.168;21.040;2023-02-03T19:15:22;99417.34;;;-0.28;91.23
75913;BME280;64592;52.168;21.040;2023-02-03T19:20:24;99416.28;;;-0.24;90.97
75913;BME280;64592;52.168;21.040;2023-02-03T19:25:27;99422.56;;;-0.26;91.01
75913;BME280;64592;52.168;21.040;2023-02-03T19:30:28;99421.66;;;-0.25;90.72
75913;BME280;64592;52.168;21.040;2023-02-03T19:35:30;99430.59;;;-0.28;90.93
75913;BME280;64592;52.168;21.040;2023-02-03T19:40:34;99416.22;;;-0.22;90.93
75913;BME280;64592;52.168;21.040;2023-02-03T19:45:35;99411.75;;;-0.22;89.98
75913;BME280;64592;52.168;21.040;2023-02-03T19:50:37;99412.78;;;-0.24;90.56
75913;BME280;64592;52.168;21.040;2023-02-03T19:55:42;99414.56;;;-0.25;90.17
75913;BME280;64592;52.168;21.040;2023-02-03T20:00:44;99434.03;;;-0.26;89.95
75913;BME280;64592;52.168;21.040;2023-02-03T20:05:46;99454.28;;;-0.25;90.44
75913;BME280;64592;52.168;21.040;2023-02-03T20:10:49;99448.13;;;-0.25;90.25
75913;BME280;64592;52.168;21.040;2023-02-03T20:15:51;99456.00;;;-0.24;89.57
75913;BME280;64592;52.168;21.040;2023-02-03T20:20:54;99455.22;;;-0.26;89.17
75913;BME280;64592;52.168;21.040;2023-02-03T20:25:57;99445.59;;;-0.28;89.63
75913;BME280;64592;52.168;21.040;2023-02-03T20:31:00;99459.59;;;-0.25;89.00
75913;BME280;64592;52.168;21.040;2023-02-03T20:36:03;99459.50;;;-0.23;89.33
75913;BME280;64592;52.168;21.040;2023-02-03T20:41:07;99485.13;;;-0.24;90.04
75913;BME280;64592;52.168;21.040;2023-02-03T20:46:10;99489.50;;;-0.23;89.27
75913;BME280;64592;52.168;21.040;2023-02-03T20:51:13;99484.28;;;-0.24;89.78
75913;BME280;64592;52.168;21.040;2023-02-03T20:56:18;99484.22;;;-0.23;89.43
75913;BME280;64592;52.168;21.040;2023-02-03T21:01:21;99478.13;;;-0.25;89.49
75913;BME280;64592;52.168;21.040;2023-02-03T21:06:23;99493.00;;;-0.22;90.29
75913;BME280;64592;52.168;21.040;2023-02-03T21:11:28;99508.03;;;-0.23;90.48
75913;BME280;64592;52.168;21.040;2023-02-03T21:16:34;99500.22;;;-0.26;90.83
75913;BME280;64592;52.168;21.040;2023-02-03T21:21:39;99527.63;;;-0.27;90.05
75913;BME280;64592;52.168;21.040;2023-02-03T21:26:44;99551.38;;;-0.25;89.83
75913;BME280;64592;52.168;21.040;2023-02-03T21:31:46;99543.50;;;-0.27;90.84
75913;BME280;64592;52.168;21.040;2023-02-03T21:36:47;99536.50;;;-0.28;90.19
75913;BME280;64592;52.168;21.040;2023-02-03T21:41:51;99539.06;;;-0.26;90.29
75913;BME280;64592;52.168;21.040;2023-02-03T21:46:52;99563.25;;;-0.34;91.28
75913;BME280;64592;52.168;21.040;2023-02-03T21:51:54;99567.72;;;-0.36;91.22
75913;BME280;64592;52.168;21.040;2023-02-03T21:56:57;99572.09;;;-0.35;90.83
75913;BME280;64592;52.168;21.040;2023-02-03T22:01:59;99588.25;;;-0.41;91.14
75913;BME280;64592;52.168;21.040;2023-02-03T22:07:13;99579.47;;;-0.42;90.39
75913;BME280;64592;52.168;21.040;2023-02-03T22:12:16;99590.25;;;-0.46;90.10
75913;BME280;64592;52.168;21.040;2023-02-03T22:17:18;99594.81;;;-0.50;90.39
75913;BME280;64592;52.168;21.040;2023-02-03T22:22:20;99601.22;;;-0.55;90.26
75913;BME280;64592;52.168;21.040;2023-02-03T22:27:23;99602.97;;;-0.54;90.23
75913;BME280;64592;52.168;21.040;2023-02-03T22:32:25;99615.66;;;-0.62;90.52
75913;BME280;64592;52.168;21.040;2023-02-03T22:37:27;99628.44;;;-0.73;91.51
75913;BME280;64592;52.168;21.040;2023-02-03T22:42:32;99620.66;;;-0.76;91.62
75913;BME280;64592;52.168;21.040;2023-02-03T22:47:34;99628.00;;;-0.83;91.18
75913;BME280;64592;52.168;21.040;2023-02-03T22:52:36;99643.88;;;-0.83;91.47
75913;BME280;64592;52.168;21.040;2023-02-03T22:57:39;99640.91;;;-0.75;91.56
75913;BME280;64592;52.168;21.040;2023-02-03T23:02:40;99627.25;;;-0.87;91.82
75913;BME280;64592;52.168;21.040;2023-02-03T23:07:42;99638.81;;;-0.89;90.87
75913;BME280;64592;52.168;21.040;2023-02-03T23:12:46;99648.66;;;-0.93;91.63
75913;BME280;64592;52.168;21.040;2023-02-03T23:17:48;99666.34;;;-0.95;92.40
75913;BME280;64592;52.168;21.040;2023-02-03T23:22:50;99678.91;;;-1.00;91.45
75913;BME280;64592;52.168;21.040;2023-02-03T23:27:53;99684.31;;;-1.03;91.92
75913;BME280;64592;52.168;21.040;2023-02-03T23:32:54;99699.56;;;-1.09;92.09
75913;BME280;64592;52.168;21.040;2023-02-03T23:37:56;99730.56;;;-1.13;91.21
75913;BME280;64592;52.168;21.040;2023-02-03T23:42:59;99737.00;;;-1.20;92.00
75913;BME280;64592;52.168;21.040;2023-02-03T23:48:01;99752.06;;;-1.22;91.79
75913;BME280;64592;52.168;21.040;2023-02-03T23:53:03;99752.16;;;-1.25;92.01
75913;BME280;64592;52.168;21.040;2023-02-03T23:58:06;99760.25;;;-1.30;92.52
